sensor_id;sensor_type;location;lat;lon;timestamp;temperature;humidity
66568;DHT22;53422;49.296;6.900;2022-08-19T00:00:12;22.90;65.90
66568;DHT22;53422;49.296;6.900;2022-08-19T00:02:43;22.80;66.30
66568;DHT22;53422;49.296;6.900;2022-08-19T00:05:10;22.80;66.10
66568;DHT22;53422;49.296;6.900;2022-08-19T00:07:36;22.80;66.20
66568;DHT22;53422;49.296;6.900;2022-08-19T00:10:05;22.80;66.20
66568;DHT22;53422;49.296;6.900;2022-08-19T00:12:31;22.80;66.30
66568;DHT22;53422;49.296;6.900;2022-08-19T00:14:57;22.80;66.30
66568;DHT22;53422;49.296;6.900;2022-08-19T00:17:23;22.80;66.50
66568;DHT22;53422;49.296;6.900;2022-08-19T00:19:48;22.80;66.30
66568;DHT22;53422;49.296;6.900;2022-08-19T00:22:14;22.80;66.20
66568;DHT22;53422;49.296;6.900;2022-08-19T00:24:41;22.80;66.20
66568;DHT22;53422;49.296;6.900;2022-08-19T00:27:09;22.80;66.20
66568;DHT22;53422;49.296;6.900;2022-08-19T00:29:34;22.80;66.30
66568;DHT22;53422;49.296;6.900;2022-08-19T00:32:00;22.80;66.10
66568;DHT22;53422;49.296;6.900;2022-08-19T00:34:26;22.80;66.20
66568;DHT22;53422;49.296;6.900;2022-08-19T00:36:55;22.80;66.70
66568;DHT22;53422;49.296;6.900;2022-08-19T00:39:21;22.70;66.60
66568;DHT22;53422;49.296;6.900;2022-08-19T00:41:48;22.70;66.70
66568;DHT22;53422;49.296;6.900;2022-08-19T00:44:26;22.80;66.50
66568;DHT22;53422;49.296;6.900;2022-08-19T00:46:54;22.80;66.80
66568;DHT22;53422;49.296;6.900;2022-08-19T00:51:53;22.70;66.50
66568;DHT22;53422;49.296;6.900;2022-08-19T00:54:21;22.70;66.30
66568;DHT22;53422;49.296;6.900;2022-08-19T00:56:48;22.70;66.20
66568;DHT22;53422;49.296;6.900;2022-08-19T00:59:16;22.70;66.50
66568;DHT22;53422;49.296;6.900;2022-08-19T01:01:43;22.70;66.50
66568;DHT22;53422;49.296;6.900;2022-08-19T01:04:09;22.70;67.50
66568;DHT22;53422;49.296;6.900;2022-08-19T01:06:36;22.70;66.40
66568;DHT22;53422;49.296;6.900;2022-08-19T01:09:03;22.60;66.30
66568;DHT22;53422;49.296;6.900;2022-08-19T01:11:31;22.70;66.30
66568;DHT22;53422;49.296;6.900;2022-08-19T01:13:59;22.70;66.40
66568;DHT22;53422;49.296;6.900;2022-08-19T01:16:27;22.70;66.50
66568;DHT22;53422;49.296;6.900;2022-08-19T01:18:53;22.70;66.20
66568;DHT22;53422;49.296;6.900;2022-08-19T01:21:37;22.60;66.50
66568;DHT22;53422;49.296;6.900;2022-08-19T01:24:04;22.60;66.50
66568;DHT22;53422;49.296;6.900;2022-08-19T01:26:30;22.60;66.40
66568;DHT22;53422;49.296;6.900;2022-08-19T01:28:58;22.60;67.50
66568;DHT22;53422;49.296;6.900;2022-08-19T01:31:26;22.60;66.40
66568;DHT22;53422;49.296;6.900;2022-08-19T01:33:54;22.60;66.50
66568;DHT22;53422;49.296;6.900;2022-08-19T01:36:39;22.50;66.60
66568;DHT22;53422;49.296;6.900;2022-08-19T01:39:08;22.50;66.50
66568;DHT22;53422;49.296;6.900;2022-08-19T01:41:34;22.50;66.20
66568;DHT22;53422;49.296;6.900;2022-08-19T01:44:00;22.50;67.20
66568;DHT22;53422;49.296;6.900;2022-08-19T01:46:29;22.50;66.20
66568;DHT22;53422;49.296;6.900;2022-08-19T01:48:55;22.50;66.30
66568;DHT22;53422;49.296;6.900;2022-08-19T01:51:20;22.50;67.20
66568;DHT22;53422;49.296;6.900;2022-08-19T01:53:50;22.50;66.10
66568;DHT22;53422;49.296;6.900;2022-08-19T01:56:17;22.40;66.40
66568;DHT22;53422;49.296;6.900;2022-08-19T01:58:50;22.40;66.20
66568;DHT22;53422;49.296;6.900;2022-08-19T02:01:18;22.40;66.20
66568;DHT22;53422;49.296;6.900;2022-08-19T02:03:44;22.40;66.40
66568;DHT22;53422;49.296;6.900;2022-08-19T02:06:10;22.40;66.30
66568;DHT22;53422;49.296;6.900;2022-08-19T02:08:37;22.40;66.30
66568;DHT22;53422;49.296;6.900;2022-08-19T02:11:05;22.40;66.40
66568;DHT22;53422;49.296;6.900;2022-08-19T02:13:31;22.40;66.50
66568;DHT22;53422;49.296;6.900;2022-08-19T02:15:57;22.30;66.50
66568;DHT22;53422;49.296;6.900;2022-08-19T02:18:23;22.30;66.30
66568;DHT22;53422;49.296;6.900;2022-08-19T02:20:49;22.30;66.40
66568;DHT22;53422;49.296;6.900;2022-08-19T02:23:16;22.30;66.50
66568;DHT22;53422;49.296;6.900;2022-08-19T02:25:43;22.30;66.40
66568;DHT22;53422;49.296;6.900;2022-08-19T02:28:09;22.30;66.50
66568;DHT22;53422;49.296;6.900;2022-08-19T02:30:35;22.30;66.50
66568;DHT22;53422;49.296;6.900;2022-08-19T02:33:00;22.30;66.60
66568;DHT22;53422;49.296;6.900;2022-08-19T02:35:26;22.30;66.60
66568;DHT22;53422;49.296;6.900;2022-08-19T02:37:52;22.30;66.80
66568;DHT22;53422;49.296;6.900;2022-08-19T02:41:01;22.20;66.80
66568;DHT22;53422;49.296;6.900;2022-08-19T02:43:30;22.20;66.70
66568;DHT22;53422;49.296;6.900;2022-08-19T02:45:57;22.20;66.70
66568;DHT22;53422;49.296;6.900;2022-08-19T02:48:24;22.20;66.70
66568;DHT22;53422;49.296;6.900;2022-08-19T02:50:51;22.20;66.70
66568;DHT22;53422;49.296;6.900;2022-08-19T02:53:26;22.20;67.60
66568;DHT22;53422;49.296;6.900;2022-08-19T02:55:52;22.20;67.00
66568;DHT22;53422;49.296;6.900;2022-08-19T02:58:19;22.10;66.80
66568;DHT22;53422;49.296;6.900;2022-08-19T03:00:48;22.10;66.90
66568;DHT22;53422;49.296;6.900;2022-08-19T03:03:15;22.10;66.90
66568;DHT22;53422;49.296;6.900;2022-08-19T03:05:42;22.10;66.80
66568;DHT22;53422;49.296;6.900;2022-08-19T03:08:08;22.10;67.10
66568;DHT22;53422;49.296;6.900;2022-08-19T03:10:42;22.10;67.30
66568;DHT22;53422;49.296;6.900;2022-08-19T03:13:10;22.10;66.90
66568;DHT22;53422;49.296;6.900;2022-08-19T03:15:40;22.10;66.90
66568;DHT22;53422;49.296;6.900;2022-08-19T03:18:06;22.10;67.10
66568;DHT22;53422;49.296;6.900;2022-08-19T03:20:32;22.10;67.10
66568;DHT22;53422;49.296;6.900;2022-08-19T03:22:58;22.00;67.10
66568;DHT22;53422;49.296;6.900;2022-08-19T03:25:23;22.00;68.10
66568;DHT22;53422;49.296;6.900;2022-08-19T03:27:49;22.00;67.10
66568;DHT22;53422;49.296;6.900;2022-08-19T03:30:15;22.00;67.10
66568;DHT22;53422;49.296;6.900;2022-08-19T03:32:41;22.00;67.10
66568;DHT22;53422;49.296;6.900;2022-08-19T03:35:06;22.00;67.20
66568;DHT22;53422;49.296;6.900;2022-08-19T03:37:32;22.00;67.10
66568;DHT22;53422;49.296;6.900;2022-08-19T03:39:58;22.00;67.10
66568;DHT22;53422;49.296;6.900;2022-08-19T03:42:23;22.00;67.30
66568;DHT22;53422;49.296;6.900;2022-08-19T03:44:52;21.90;67.50
66568;DHT22;53422;49.296;6.900;2022-08-19T03:47:17;21.90;67.50
66568;DHT22;53422;49.296;6.900;2022-08-19T03:49:44;21.90;67.30
66568;DHT22;53422;49.296;6.900;2022-08-19T03:52:10;21.90;67.40
66568;DHT22;53422;49.296;6.900;2022-08-19T03:54:36;21.90;67.30
66568;DHT22;53422;49.296;6.900;2022-08-19T03:57:03;21.90;67.30
66568;DHT22;53422;49.296;6.900;2022-08-19T03:59:32;21.90;67.30
66568;DHT22;53422;49.296;6.900;2022-08-19T04:02:00;21.90;67.50
66568;DHT22;53422;49.296;6.900;2022-08-19T04:04:26;21.80;67.50
66568;DHT22;53422;49.296;6.900;2022-08-19T04:06:52;21.90;67.50
66568;DHT22;53422;49.296;6.900;2022-08-19T04:09:18;21.80;67.80
66568;DHT22;53422;49.296;6.900;2022-08-19T04:11:47;21.80;67.80
66568;DHT22;53422;49.296;6.900;2022-08-19T04:14:20;21.80;67.80
66568;DHT22;53422;49.296;6.900;2022-08-19T04:16:47;21.80;67.70
66568;DHT22;53422;49.296;6.900;2022-08-19T04:19:14;21.80;67.60
66568;DHT22;53422;49.296;6.900;2022-08-19T04:21:43;21.80;67.90
66568;DHT22;53422;49.296;6.900;2022-08-19T04:24:09;21.70;67.70
66568;DHT22;53422;49.296;6.900;2022-08-19T04:26:35;21.70;68.00
66568;DHT22;53422;49.296;6.900;2022-08-19T04:29:05;21.70;68.10
66568;DHT22;53422;49.296;6.900;2022-08-19T04:31:32;21.70;67.90
66568;DHT22;53422;49.296;6.900;2022-08-19T04:34:02;21.70;67.90
66568;DHT22;53422;49.296;6.900;2022-08-19T04:36:30;21.70;68.20
66568;DHT22;53422;49.296;6.900;2022-08-19T04:38:58;21.70;68.20
66568;DHT22;53422;49.296;6.900;2022-08-19T04:41:25;21.60;67.90
66568;DHT22;53422;49.296;6.900;2022-08-19T04:44:10;21.60;68.10
66568;DHT22;53422;49.296;6.900;2022-08-19T04:46:36;21.60;67.90
66568;DHT22;53422;49.296;6.900;2022-08-19T04:49:03;21.60;67.90
66568;DHT22;53422;49.296;6.900;2022-08-19T04:51:31;21.60;67.90
66568;DHT22;53422;49.296;6.900;2022-08-19T04:53:57;21.60;67.90
66568;DHT22;53422;49.296;6.900;2022-08-19T04:56:24;21.60;68.10
66568;DHT22;53422;49.296;6.900;2022-08-19T04:58:53;21.60;68.30
66568;DHT22;53422;49.296;6.900;2022-08-19T05:01:22;21.60;68.40
66568;DHT22;53422;49.296;6.900;2022-08-19T05:03:49;21.50;68.40
66568;DHT22;53422;49.296;6.900;2022-08-19T05:06:17;21.50;68.20
66568;DHT22;53422;49.296;6.900;2022-08-19T05:08:43;21.50;68.60
66568;DHT22;53422;49.296;6.900;2022-08-19T05:11:19;21.50;68.40
66568;DHT22;53422;49.296;6.900;2022-08-19T05:13:46;21.50;68.60
66568;DHT22;53422;49.296;6.900;2022-08-19T05:16:13;21.50;68.60
66568;DHT22;53422;49.296;6.900;2022-08-19T05:18:39;21.50;68.60
66568;DHT22;53422;49.296;6.900;2022-08-19T05:21:24;21.50;68.80
66568;DHT22;53422;49.296;6.900;2022-08-19T05:24:09;21.50;68.90
66568;DHT22;53422;49.296;6.900;2022-08-19T05:26:39;21.50;68.70
66568;DHT22;53422;49.296;6.900;2022-08-19T05:29:05;21.50;68.60
66568;DHT22;53422;49.296;6.900;2022-08-19T05:31:32;21.50;68.80
66568;DHT22;53422;49.296;6.900;2022-08-19T05:33:58;21.50;68.90
66568;DHT22;53422;49.296;6.900;2022-08-19T05:36:26;21.50;68.70
66568;DHT22;53422;49.296;6.900;2022-08-19T05:38:52;21.50;68.80
66568;DHT22;53422;49.296;6.900;2022-08-19T05:41:19;21.50;69.00
66568;DHT22;53422;49.296;6.900;2022-08-19T05:43:45;21.50;68.90
66568;DHT22;53422;49.296;6.900;2022-08-19T05:46:19;21.50;69.10
66568;DHT22;53422;49.296;6.900;2022-08-19T05:48:46;21.50;69.50
66568;DHT22;53422;49.296;6.900;2022-08-19T05:51:12;21.50;69.10
66568;DHT22;53422;49.296;6.900;2022-08-19T05:53:38;21.50;69.10
66568;DHT22;53422;49.296;6.900;2022-08-19T05:56:09;21.50;69.20
66568;DHT22;53422;49.296;6.900;2022-08-19T05:58:35;21.50;69.30
66568;DHT22;53422;49.296;6.900;2022-08-19T06:01:02;21.50;69.40
66568;DHT22;53422;49.296;6.900;2022-08-19T06:03:32;21.50;69.40
66568;DHT22;53422;49.296;6.900;2022-08-19T06:05:58;21.50;69.30
66568;DHT22;53422;49.296;6.900;2022-08-19T06:08:25;21.50;69.30
66568;DHT22;53422;49.296;6.900;2022-08-19T06:10:52;21.50;69.20
66568;DHT22;53422;49.296;6.900;2022-08-19T06:13:18;21.50;69.40
66568;DHT22;53422;49.296;6.900;2022-08-19T06:15:45;21.50;69.30
66568;DHT22;53422;49.296;6.900;2022-08-19T06:18:12;21.50;69.20
66568;DHT22;53422;49.296;6.900;2022-08-19T06:20:37;21.50;69.40
66568;DHT22;53422;49.296;6.900;2022-08-19T06:23:03;21.50;69.40
66568;DHT22;53422;49.296;6.900;2022-08-19T06:25:29;21.50;69.60
66568;DHT22;53422;49.296;6.900;2022-08-19T06:27:55;21.50;69.70
66568;DHT22;53422;49.296;6.900;2022-08-19T06:30:21;21.50;69.90
66568;DHT22;53422;49.296;6.900;2022-08-19T06:32:47;21.60;70.10
66568;DHT22;53422;49.296;6.900;2022-08-19T06:35:12;21.60;70.00
66568;DHT22;53422;49.296;6.900;2022-08-19T06:37:40;21.60;69.90
66568;DHT22;53422;49.296;6.900;2022-08-19T06:40:07;21.60;69.70
66568;DHT22;53422;49.296;6.900;2022-08-19T06:42:34;21.60;70.20
66568;DHT22;53422;49.296;6.900;2022-08-19T06:45:00;21.60;69.80
66568;DHT22;53422;49.296;6.900;2022-08-19T06:47:28;21.70;69.80
66568;DHT22;53422;49.296;6.900;2022-08-19T06:49:58;21.70;69.90
66568;DHT22;53422;49.296;6.900;2022-08-19T06:52:31;21.70;70.00
66568;DHT22;53422;49.296;6.900;2022-08-19T06:54:58;21.70;69.80
66568;DHT22;53422;49.296;6.900;2022-08-19T06:57:25;21.80;69.80
66568;DHT22;53422;49.296;6.900;2022-08-19T06:59:51;21.80;69.70
66568;DHT22;53422;49.296;6.900;2022-08-19T07:02:19;21.90;69.50
66568;DHT22;53422;49.296;6.900;2022-08-19T07:04:45;21.90;69.50
66568;DHT22;53422;49.296;6.900;2022-08-19T07:07:14;22.00;69.70
66568;DHT22;53422;49.296;6.900;2022-08-19T07:09:42;22.00;70.30
66568;DHT22;53422;49.296;6.900;2022-08-19T07:12:11;22.10;69.60
66568;DHT22;53422;49.296;6.900;2022-08-19T07:14:38;22.10;69.90
66568;DHT22;53422;49.296;6.900;2022-08-19T07:17:07;22.10;69.90
66568;DHT22;53422;49.296;6.900;2022-08-19T07:19:35;22.20;69.50
66568;DHT22;53422;49.296;6.900;2022-08-19T07:22:02;22.30;69.40
66568;DHT22;53422;49.296;6.900;2022-08-19T07:24:28;22.30;69.00
66568;DHT22;53422;49.296;6.900;2022-08-19T07:26:56;22.40;68.90
66568;DHT22;53422;49.296;6.900;2022-08-19T07:29:26;22.50;68.80
66568;DHT22;53422;49.296;6.900;2022-08-19T07:31:53;22.60;68.90
66568;DHT22;53422;49.296;6.900;2022-08-19T07:34:23;22.60;68.40
66568;DHT22;53422;49.296;6.900;2022-08-19T07:36:50;22.70;68.50
66568;DHT22;53422;49.296;6.900;2022-08-19T07:39:25;22.80;68.50
66568;DHT22;53422;49.296;6.900;2022-08-19T07:41:51;22.90;67.50
66568;DHT22;53422;49.296;6.900;2022-08-19T07:44:17;22.90;69.20
66568;DHT22;53422;49.296;6.900;2022-08-19T07:46:48;23.10;69.10
66568;DHT22;53422;49.296;6.900;2022-08-19T07:49:15;23.20;68.80
66568;DHT22;53422;49.296;6.900;2022-08-19T07:52:00;23.20;69.80
66568;DHT22;53422;49.296;6.900;2022-08-19T07:54:29;23.30;68.80
66568;DHT22;53422;49.296;6.900;2022-08-19T07:56:56;23.40;68.90
66568;DHT22;53422;49.296;6.900;2022-08-19T07:59:22;23.50;67.90
66568;DHT22;53422;49.296;6.900;2022-08-19T08:01:48;23.60;68.60
66568;DHT22;53422;49.296;6.900;2022-08-19T08:04:16;23.70;68.30
66568;DHT22;53422;49.296;6.900;2022-08-19T08:07:00;23.80;67.80
66568;DHT22;53422;49.296;6.900;2022-08-19T08:09:45;23.90;69.20
66568;DHT22;53422;49.296;6.900;2022-08-19T08:12:15;24.10;68.60
66568;DHT22;53422;49.296;6.900;2022-08-19T08:14:45;24.20;67.40
66568;DHT22;53422;49.296;6.900;2022-08-19T08:17:17;24.30;66.60
66568;DHT22;53422;49.296;6.900;2022-08-19T08:19:43;24.40;65.80
66568;DHT22;53422;49.296;6.900;2022-08-19T08:22:11;24.40;65.80
66568;DHT22;53422;49.296;6.900;2022-08-19T08:25:04;24.50;65.70
66568;DHT22;53422;49.296;6.900;2022-08-19T08:30:04;24.60;65.80
66568;DHT22;53422;49.296;6.900;2022-08-19T08:32:38;24.80;64.80
66568;DHT22;53422;49.296;6.900;2022-08-19T08:35:05;24.90;64.70
66568;DHT22;53422;49.296;6.900;2022-08-19T08:37:31;25.00;65.30
66568;DHT22;53422;49.296;6.900;2022-08-19T08:39:58;25.10;65.30
66568;DHT22;53422;49.296;6.900;2022-08-19T08:42:32;25.10;63.80
66568;DHT22;53422;49.296;6.900;2022-08-19T08:45:06;25.20;63.80
66568;DHT22;53422;49.296;6.900;2022-08-19T08:47:36;25.20;63.50
66568;DHT22;53422;49.296;6.900;2022-08-19T08:50:20;25.20;63.80
66568;DHT22;53422;49.296;6.900;2022-08-19T08:52:52;25.30;63.20
66568;DHT22;53422;49.296;6.900;2022-08-19T08:55:23;25.40;65.20
66568;DHT22;53422;49.296;6.900;2022-08-19T09:00:27;25.60;61.90
66568;DHT22;53422;49.296;6.900;2022-08-19T09:02:54;25.60;62.20
66568;DHT22;53422;49.296;6.900;2022-08-19T09:05:21;25.70;63.60
66568;DHT22;53422;49.296;6.900;2022-08-19T09:10:50;25.90;61.50
66568;DHT22;53422;49.296;6.900;2022-08-19T09:21:04;26.20;59.30
66568;DHT22;53422;49.296;6.900;2022-08-19T09:23:30;26.20;59.40
66568;DHT22;53422;49.296;6.900;2022-08-19T09:25:55;26.50;59.30
66568;DHT22;53422;49.296;6.900;2022-08-19T09:28:21;26.30;57.40
66568;DHT22;53422;49.296;6.900;2022-08-19T09:30:46;26.40;57.40
66568;DHT22;53422;49.296;6.900;2022-08-19T09:33:12;26.60;57.00
66568;DHT22;53422;49.296;6.900;2022-08-19T09:35:38;26.70;55.00
66568;DHT22;53422;49.296;6.900;2022-08-19T09:38:03;26.80;53.60
66568;DHT22;53422;49.296;6.900;2022-08-19T09:40:30;26.90;54.70
66568;DHT22;53422;49.296;6.900;2022-08-19T09:42:56;26.90;55.10
66568;DHT22;53422;49.296;6.900;2022-08-19T09:45:22;26.90;55.50
66568;DHT22;53422;49.296;6.900;2022-08-19T09:47:50;26.90;55.40
66568;DHT22;53422;49.296;6.900;2022-08-19T09:50:16;26.90;54.30
66568;DHT22;53422;49.296;6.900;2022-08-19T09:52:43;26.90;54.20
66568;DHT22;53422;49.296;6.900;2022-08-19T09:55:10;26.80;52.80
66568;DHT22;53422;49.296;6.900;2022-08-19T09:57:36;26.80;53.10
66568;DHT22;53422;49.296;6.900;2022-08-19T10:00:04;26.80;53.20
66568;DHT22;53422;49.296;6.900;2022-08-19T10:02:30;26.80;53.70
66568;DHT22;53422;49.296;6.900;2022-08-19T10:04:56;26.80;53.20
66568;DHT22;53422;49.296;6.900;2022-08-19T10:07:40;26.70;52.50
66568;DHT22;53422;49.296;6.900;2022-08-19T10:10:06;26.60;51.50
66568;DHT22;53422;49.296;6.900;2022-08-19T10:12:33;26.60;51.70
66568;DHT22;53422;49.296;6.900;2022-08-19T10:15:00;26.60;50.60
66568;DHT22;53422;49.296;6.900;2022-08-19T10:17:26;26.70;51.30
66568;DHT22;53422;49.296;6.900;2022-08-19T10:19:52;26.90;50.80
66568;DHT22;53422;49.296;6.900;2022-08-19T10:22:18;27.00;49.90
66568;DHT22;53422;49.296;6.900;2022-08-19T10:24:45;27.10;49.30
66568;DHT22;53422;49.296;6.900;2022-08-19T10:27:11;27.20;49.50
66568;DHT22;53422;49.296;6.900;2022-08-19T10:29:38;27.10;48.10
66568;DHT22;53422;49.296;6.900;2022-08-19T10:32:06;27.20;48.00
66568;DHT22;53422;49.296;6.900;2022-08-19T10:34:34;27.50;48.60
66568;DHT22;53422;49.296;6.900;2022-08-19T10:37:02;27.50;48.70
66568;DHT22;53422;49.296;6.900;2022-08-19T10:39:35;27.60;48.50
66568;DHT22;53422;49.296;6.900;2022-08-19T10:42:06;27.70;48.00
66568;DHT22;53422;49.296;6.900;2022-08-19T10:44:32;27.80;48.20
66568;DHT22;53422;49.296;6.900;2022-08-19T10:47:01;27.90;48.20
66568;DHT22;53422;49.296;6.900;2022-08-19T10:49:49;28.00;47.60
66568;DHT22;53422;49.296;6.900;2022-08-19T10:52:33;27.90;46.50
66568;DHT22;53422;49.296;6.900;2022-08-19T10:55:00;27.90;45.80
66568;DHT22;53422;49.296;6.900;2022-08-19T10:57:44;27.90;46.30
66568;DHT22;53422;49.296;6.900;2022-08-19T11:00:11;28.00;44.90
66568;DHT22;53422;49.296;6.900;2022-08-19T11:02:36;28.00;44.60
66568;DHT22;53422;49.296;6.900;2022-08-19T11:05:03;28.10;44.70
66568;DHT22;53422;49.296;6.900;2022-08-19T11:07:28;28.30;45.00
66568;DHT22;53422;49.296;6.900;2022-08-19T11:09:54;28.50;45.40
66568;DHT22;53422;49.296;6.900;2022-08-19T11:12:19;28.60;45.10
66568;DHT22;53422;49.296;6.900;2022-08-19T11:14:45;28.50;44.10
66568;DHT22;53422;49.296;6.900;2022-08-19T11:17:11;28.40;44.20
66568;DHT22;53422;49.296;6.900;2022-08-19T11:19:39;28.40;44.10
66568;DHT22;53422;49.296;6.900;2022-08-19T11:22:08;28.30;44.00
66568;DHT22;53422;49.296;6.900;2022-08-19T11:24:35;28.40;44.40
66568;DHT22;53422;49.296;6.900;2022-08-19T11:27:08;28.50;44.10
66568;DHT22;53422;49.296;6.900;2022-08-19T11:29:37;28.60;44.10
66568;DHT22;53422;49.296;6.900;2022-08-19T11:32:06;28.70;43.30
66568;DHT22;53422;49.296;6.900;2022-08-19T11:34:32;28.60;43.40
66568;DHT22;53422;49.296;6.900;2022-08-19T11:36:57;28.50;44.40
66568;DHT22;53422;49.296;6.900;2022-08-19T11:39:25;28.60;43.20
66568;DHT22;53422;49.296;6.900;2022-08-19T11:41:51;28.80;42.80
66568;DHT22;53422;49.296;6.900;2022-08-19T11:44:17;28.70;41.70
66568;DHT22;53422;49.296;6.900;2022-08-19T11:46:44;28.60;42.10
66568;DHT22;53422;49.296;6.900;2022-08-19T11:49:13;28.60;42.90
66568;DHT22;53422;49.296;6.900;2022-08-19T11:51:39;28.80;42.70
66568;DHT22;53422;49.296;6.900;2022-08-19T11:54:05;28.50;43.70
66568;DHT22;53422;49.296;6.900;2022-08-19T11:56:31;28.80;44.20
66568;DHT22;53422;49.296;6.900;2022-08-19T11:58:57;28.80;44.40
66568;DHT22;53422;49.296;6.900;2022-08-19T12:01:24;28.80;44.70
66568;DHT22;53422;49.296;6.900;2022-08-19T12:03:52;28.50;47.00
66568;DHT22;53422;49.296;6.900;2022-08-19T12:06:22;28.50;47.40
66568;DHT22;53422;49.296;6.900;2022-08-19T12:08:51;28.70;47.00
66568;DHT22;53422;49.296;6.900;2022-08-19T12:11:17;28.60;46.70
66568;DHT22;53422;49.296;6.900;2022-08-19T12:13:43;28.70;47.10
66568;DHT22;53422;49.296;6.900;2022-08-19T12:16:25;28.80;47.60
66568;DHT22;53422;49.296;6.900;2022-08-19T12:18:52;29.10;46.90
66568;DHT22;53422;49.296;6.900;2022-08-19T12:21:23;29.20;46.40
66568;DHT22;53422;49.296;6.900;2022-08-19T12:23:53;29.30;46.00
66568;DHT22;53422;49.296;6.900;2022-08-19T12:26:20;29.10;46.20
66568;DHT22;53422;49.296;6.900;2022-08-19T12:28:45;28.90;45.50
66568;DHT22;53422;49.296;6.900;2022-08-19T12:31:31;28.30;46.20
66568;DHT22;53422;49.296;6.900;2022-08-19T12:33:58;28.60;46.90
66568;DHT22;53422;49.296;6.900;2022-08-19T12:36:24;28.80;46.00
66568;DHT22;53422;49.296;6.900;2022-08-19T12:38:51;28.80;46.10
66568;DHT22;53422;49.296;6.900;2022-08-19T12:41:17;28.90;45.40
66568;DHT22;53422;49.296;6.900;2022-08-19T12:43:44;28.70;44.70
66568;DHT22;53422;49.296;6.900;2022-08-19T12:46:10;28.60;44.70
66568;DHT22;53422;49.296;6.900;2022-08-19T12:48:37;28.50;45.80
66568;DHT22;53422;49.296;6.900;2022-08-19T12:51:07;28.50;45.10
66568;DHT22;53422;49.296;6.900;2022-08-19T12:53:33;28.50;45.30
66568;DHT22;53422;49.296;6.900;2022-08-19T12:55:59;28.60;45.30
66568;DHT22;53422;49.296;6.900;2022-08-19T12:58:26;28.50;45.40
66568;DHT22;53422;49.296;6.900;2022-08-19T13:00:52;28.30;45.60
66568;DHT22;53422;49.296;6.900;2022-08-19T13:03:18;28.20;46.00
66568;DHT22;53422;49.296;6.900;2022-08-19T13:05:43;28.20;46.10
66568;DHT22;53422;49.296;6.900;2022-08-19T13:08:09;28.20;45.90
66568;DHT22;53422;49.296;6.900;2022-08-19T13:10:35;28.10;46.10
66568;DHT22;53422;49.296;6.900;2022-08-19T13:13:03;28.20;45.70
66568;DHT22;53422;49.296;6.900;2022-08-19T13:15:33;28.20;45.80
66568;DHT22;53422;49.296;6.900;2022-08-19T13:17:59;28.30;46.20
66568;DHT22;53422;49.296;6.900;2022-08-19T13:20:26;28.40;46.30
66568;DHT22;53422;49.296;6.900;2022-08-19T13:22:52;28.30;46.90
66568;DHT22;53422;49.296;6.900;2022-08-19T13:25:18;28.20;47.10
66568;DHT22;53422;49.296;6.900;2022-08-19T13:27:46;28.20;46.50
66568;DHT22;53422;49.296;6.900;2022-08-19T13:30:15;28.30;46.30
66568;DHT22;53422;49.296;6.900;2022-08-19T13:33:00;28.40;46.30
66568;DHT22;53422;49.296;6.900;2022-08-19T13:35:49;28.50;45.60
66568;DHT22;53422;49.296;6.900;2022-08-19T13:38:20;28.40;45.30
66568;DHT22;53422;49.296;6.900;2022-08-19T13:40:46;28.40;45.60
66568;DHT22;53422;49.296;6.900;2022-08-19T13:43:12;28.60;44.10
66568;DHT22;53422;49.296;6.900;2022-08-19T13:45:39;28.70;45.00
66568;DHT22;53422;49.296;6.900;2022-08-19T13:48:06;28.60;43.80
66568;DHT22;53422;49.296;6.900;2022-08-19T13:50:43;28.60;43.20
66568;DHT22;53422;49.296;6.900;2022-08-19T13:53:10;28.70;42.90
66568;DHT22;53422;49.296;6.900;2022-08-19T13:55:41;28.80;44.40
66568;DHT22;53422;49.296;6.900;2022-08-19T13:58:08;28.80;43.10
66568;DHT22;53422;49.296;6.900;2022-08-19T14:00:36;28.70;41.60
66568;DHT22;53422;49.296;6.900;2022-08-19T14:03:03;28.50;41.80
66568;DHT22;53422;49.296;6.900;2022-08-19T14:05:30;28.50;41.10
66568;DHT22;53422;49.296;6.900;2022-08-19T14:07:56;28.30;41.50
66568;DHT22;53422;49.296;6.900;2022-08-19T14:10:22;28.50;41.00
66568;DHT22;53422;49.296;6.900;2022-08-19T14:12:49;28.40;41.00
66568;DHT22;53422;49.296;6.900;2022-08-19T14:15:15;28.30;40.00
66568;DHT22;53422;49.296;6.900;2022-08-19T14:17:42;28.50;40.60
66568;DHT22;53422;49.296;6.900;2022-08-19T14:20:10;28.50;40.20
66568;DHT22;53422;49.296;6.900;2022-08-19T14:22:38;28.40;40.00
66568;DHT22;53422;49.296;6.900;2022-08-19T14:25:05;28.50;40.10
66568;DHT22;53422;49.296;6.900;2022-08-19T14:27:41;28.40;40.70
66568;DHT22;53422;49.296;6.900;2022-08-19T14:30:09;28.40;39.70
66568;DHT22;53422;49.296;6.900;2022-08-19T14:32:35;28.40;38.90
66568;DHT22;53422;49.296;6.900;2022-08-19T14:35:02;28.40;39.10
66568;DHT22;53422;49.296;6.900;2022-08-19T14:37:27;28.40;38.90
66568;DHT22;53422;49.296;6.900;2022-08-19T14:39:53;28.10;38.70
66568;DHT22;53422;49.296;6.900;2022-08-19T14:42:19;28.40;38.40
66568;DHT22;53422;49.296;6.900;2022-08-19T14:44:45;28.40;38.10
66568;DHT22;53422;49.296;6.900;2022-08-19T14:47:11;28.40;37.90
66568;DHT22;53422;49.296;6.900;2022-08-19T14:49:36;28.20;37.70
66568;DHT22;53422;49.296;6.900;2022-08-19T14:52:03;28.20;37.90
66568;DHT22;53422;49.296;6.900;2022-08-19T14:54:29;28.40;38.20
66568;DHT22;53422;49.296;6.900;2022-08-19T14:56:55;28.40;38.40
66568;DHT22;53422;49.296;6.900;2022-08-19T14:59:21;28.40;38.50
66568;DHT22;53422;49.296;6.900;2022-08-19T15:01:47;28.40;38.40
66568;DHT22;53422;49.296;6.900;2022-08-19T15:04:12;28.30;38.70
66568;DHT22;53422;49.296;6.900;2022-08-19T15:06:38;28.40;38.90
66568;DHT22;53422;49.296;6.900;2022-08-19T15:09:05;28.40;38.30
66568;DHT22;53422;49.296;6.900;2022-08-19T15:11:31;28.40;37.90
66568;DHT22;53422;49.296;6.900;2022-08-19T15:13:58;28.30;37.30
66568;DHT22;53422;49.296;6.900;2022-08-19T15:16:25;28.30;37.60
66568;DHT22;53422;49.296;6.900;2022-08-19T15:18:53;28.40;37.70
66568;DHT22;53422;49.296;6.900;2022-08-19T15:21:20;28.50;37.40
66568;DHT22;53422;49.296;6.900;2022-08-19T15:23:46;28.60;37.20
66568;DHT22;53422;49.296;6.900;2022-08-19T15:26:13;28.40;37.90
66568;DHT22;53422;49.296;6.900;2022-08-19T15:28:40;28.20;38.80
66568;DHT22;53422;49.296;6.900;2022-08-19T15:31:05;28.10;39.60
66568;DHT22;53422;49.296;6.900;2022-08-19T15:33:33;28.20;39.70
66568;DHT22;53422;49.296;6.900;2022-08-19T15:36:01;28.30;39.80
66568;DHT22;53422;49.296;6.900;2022-08-19T15:38:27;28.20;40.00
66568;DHT22;53422;49.296;6.900;2022-08-19T15:40:53;28.10;40.00
66568;DHT22;53422;49.296;6.900;2022-08-19T15:43:41;28.20;40.20
66568;DHT22;53422;49.296;6.900;2022-08-19T15:46:07;28.30;40.10
66568;DHT22;53422;49.296;6.900;2022-08-19T15:48:32;28.30;41.50
66568;DHT22;53422;49.296;6.900;2022-08-19T15:50:58;28.30;39.90
66568;DHT22;53422;49.296;6.900;2022-08-19T15:53:23;28.30;40.60